KBRD

Brainerd Lakes Regional Airport

Brainerd, Minnesota, USA
METAR KBRD 190453Z AUTO 00000KT 10SM OVC023 15/12 A3004 RMK AO2 SLP177 T01500122
Observed Flight Rules
Sep-19 @ 04:53 UTC (40 minutes ago) Marginal Visual Flight Rules
Visibility Clouds
10 miles
  • Overcast at 2,300' AGL
Temperatures Readings
Current 15°C / 59°F
Dewpoint 12°C / 54°F
Humidity 82%
Altimeter 30.04" Hg
Pressure 1017.7 hPa
Elevation 372
METAR KBRD 190453Z AUTO 00000KT 10SM OVC023 15/12 A3004 RMK AO2 SLP177 T01500122
Observed Flight Rules
Sep-19 @ 04:53 UTC
(40 minutes ago)
MVFR
Clouds
  • Overcast at 2,300' AGL
Temperature Dewpoint
15°C / 59°F 12°C / 54°F
Humidity Altimeter Pressure
82% 30.04" Hg 1017.7 hPa